createdAt,value
2023-01-21T00:01:10.475Z,48.45
2023-01-21T00:03:37.643Z,48.17
2023-01-21T00:06:05.352Z,47.86
2023-01-21T00:08:32.650Z,47.91
2023-01-21T00:11:17.173Z,47.54
2023-01-21T00:13:45.176Z,47.39
2023-01-21T00:16:15.044Z,47.29
2023-01-21T00:18:42.289Z,46.77
2023-01-21T00:21:09.622Z,46.82
2023-01-21T00:23:36.649Z,46.55
2023-01-21T00:26:06.299Z,46.86
2023-01-21T00:28:35.588Z,47.02
2023-01-21T00:31:04.822Z,47.32
2023-01-21T00:33:46.175Z,47.60
2023-01-21T00:36:18.620Z,47.76
2023-01-21T00:38:49.153Z,47.87
2023-01-21T00:41:16.487Z,47.42
2023-01-21T00:43:43.892Z,47.03
2023-01-21T00:46:11.635Z,46.96
2023-01-21T00:48:39.583Z,46.44
2023-01-21T00:51:07.301Z,46.54
2023-01-21T00:53:39.767Z,46.15
2023-01-21T00:56:09.299Z,46.19
2023-01-21T00:58:37.057Z,46.59
2023-01-21T01:01:08.429Z,46.28
2023-01-21T01:03:46.735Z,46.36
2023-01-21T01:06:15.159Z,46.36
2023-01-21T01:08:43.334Z,46.55
2023-01-21T01:11:11.849Z,45.95
2023-01-21T01:13:40.776Z,46.30
2023-01-21T01:16:11.226Z,46.32
2023-01-21T01:18:38.590Z,46.29
2023-01-21T01:21:06.845Z,46.50
2023-01-21T01:23:34.736Z,46.39
2023-01-21T01:26:04.614Z,46.65
2023-01-21T01:28:36.516Z,46.47
2023-01-21T01:31:12.103Z,46.79
2023-01-21T01:33:40.010Z,46.76
2023-01-21T01:36:23.721Z,47.27
2023-01-21T01:38:51.957Z,46.60
2023-01-21T01:41:22.759Z,46.63
2023-01-21T01:43:55.990Z,46.67
2023-01-21T01:46:24.634Z,46.69
2023-01-21T01:49:05.838Z,46.33
2023-01-21T01:51:52.793Z,47.05
2023-01-21T01:54:46.527Z,46.80
2023-01-21T01:57:22.023Z,46.81
2023-01-21T01:59:51.003Z,46.70
2023-01-21T02:02:20.157Z,46.91
2023-01-21T02:05:01.540Z,47.31
2023-01-21T02:07:34.074Z,46.76
2023-01-21T02:10:02.688Z,46.69
2023-01-21T02:12:29.631Z,46.90
2023-01-21T02:14:56.641Z,46.82
2023-01-21T02:17:36.163Z,46.53
2023-01-21T02:20:19.715Z,46.52
2023-01-21T02:22:52.534Z,46.44
2023-01-21T02:25:52.302Z,46.49
2023-01-21T02:28:28.438Z,46.28
2023-01-21T02:31:20.328Z,46.28
2023-01-21T02:33:53.484Z,46.78
2023-01-21T02:36:30.166Z,47.15
2023-01-21T02:39:07.672Z,47.42
2023-01-21T02:41:37.660Z,47.27
2023-01-21T02:44:16.886Z,47.63
2023-01-21T02:46:49.218Z,47.45
2023-01-21T02:49:28.101Z,48.00
2023-01-21T02:51:55.283Z,47.84
2023-01-21T02:54:40.310Z,48.18
2023-01-21T02:57:09.013Z,48.48
2023-01-21T02:59:38.292Z,47.76
2023-01-21T03:02:28.139Z,48.45
2023-01-21T03:05:05.050Z,48.67
2023-01-21T03:07:35.465Z,48.41
2023-01-21T03:10:14.220Z,48.83
2023-01-21T03:13:04.292Z,48.79
2023-01-21T03:16:03.990Z,48.35
2023-01-21T03:18:40.494Z,49.13
2023-01-21T03:21:24.166Z,49.39
2023-01-21T03:23:53.424Z,48.69
2023-01-21T03:26:32.087Z,48.74
2023-01-21T03:29:06.476Z,47.95
2023-01-21T03:31:37.441Z,47.86
2023-01-21T03:34:08.819Z,47.68
2023-01-21T03:37:06.902Z,47.89
2023-01-21T03:40:15.971Z,48.50
2023-01-21T03:42:44.953Z,48.28
2023-01-21T03:45:13.404Z,48.05
2023-01-21T03:47:58.421Z,48.45
2023-01-21T03:50:34.207Z,49.02
2023-01-21T03:53:01.649Z,48.66
2023-01-21T03:55:28.569Z,48.66
2023-01-21T03:57:55.566Z,48.40
2023-01-21T04:00:22.666Z,48.43
2023-01-21T04:02:49.660Z,48.29
2023-01-21T04:05:17.132Z,48.37
2023-01-21T04:07:44.216Z,47.90
2023-01-21T04:10:11.941Z,47.65
2023-01-21T04:12:39.229Z,47.53
2023-01-21T04:15:06.813Z,47.38
2023-01-21T04:17:33.940Z,47.34
2023-01-21T04:20:00.825Z,47.10
2023-01-21T04:22:27.991Z,47.22
2023-01-21T04:24:54.937Z,47.20
2023-01-21T04:27:21.962Z,46.90
2023-01-21T04:29:48.905Z,46.94
2023-01-21T04:32:15.877Z,46.93
2023-01-21T04:34:44.297Z,47.00
2023-01-21T04:37:11.455Z,47.04
2023-01-21T04:39:38.439Z,46.88
2023-01-21T04:42:05.864Z,46.74
2023-01-21T04:44:32.825Z,46.24
2023-01-21T04:46:59.795Z,46.20
2023-01-21T04:49:26.889Z,45.99
2023-01-21T04:51:54.041Z,45.91
2023-01-21T04:54:20.990Z,46.12
2023-01-21T04:56:50.684Z,46.15
2023-01-21T04:59:18.764Z,46.05
2023-01-21T05:01:45.677Z,46.04
2023-01-21T05:04:12.651Z,46.79
2023-01-21T05:06:39.754Z,46.47
2023-01-21T05:09:06.900Z,46.84
2023-01-21T05:11:33.876Z,46.66
2023-01-21T05:14:00.781Z,46.81
2023-01-21T05:16:27.820Z,46.60
2023-01-21T05:18:54.738Z,46.48
2023-01-21T05:21:21.711Z,46.10
2023-01-21T05:23:57.212Z,46.16
2023-01-21T05:26:34.241Z,45.63
2023-01-21T05:29:01.197Z,45.42
2023-01-21T05:31:28.147Z,45.28
2023-01-21T05:33:57.004Z,45.01
2023-01-21T05:36:24.273Z,44.69
2023-01-21T05:38:53.706Z,43.97
2023-01-21T05:41:20.715Z,44.28
2023-01-21T05:43:47.670Z,44.25
2023-01-21T05:46:15.110Z,44.40
2023-01-21T05:48:42.027Z,44.37
2023-01-21T05:51:09.017Z,44.16
2023-01-21T05:53:35.964Z,44.22
2023-01-21T05:56:03.203Z,43.92
2023-01-21T05:58:30.150Z,43.95
2023-01-21T06:00:58.726Z,43.44
2023-01-21T06:03:26.436Z,43.41
2023-01-21T06:05:53.922Z,43.25
2023-01-21T06:08:23.746Z,43.13
2023-01-21T06:10:50.719Z,43.08
2023-01-21T06:13:17.704Z,42.56
2023-01-21T06:15:44.724Z,42.53
2023-01-21T06:18:11.680Z,42.42
2023-01-21T06:20:38.669Z,42.43
2023-01-21T06:23:05.838Z,42.80
2023-01-21T06:25:33.912Z,42.96
2023-01-21T06:28:01.449Z,43.17
2023-01-21T06:30:28.540Z,43.16
2023-01-21T06:32:55.554Z,43.57
2023-01-21T06:35:22.496Z,43.31
2023-01-21T06:37:49.607Z,43.41
2023-01-21T06:40:17.019Z,43.62
2023-01-21T06:42:48.499Z,43.52
2023-01-21T06:45:17.414Z,43.73
2023-01-21T06:47:44.729Z,43.53
2023-01-21T06:50:18.080Z,43.00
2023-01-21T06:52:47.278Z,42.45
2023-01-21T06:55:15.763Z,42.84
2023-01-21T06:57:44.108Z,42.16
2023-01-21T07:00:12.451Z,41.68
2023-01-21T07:02:39.565Z,42.01
2023-01-21T07:05:06.896Z,41.54
2023-01-21T07:07:33.902Z,40.93
2023-01-21T07:10:00.854Z,40.24
2023-01-21T07:12:28.052Z,40.66
2023-01-21T07:14:54.991Z,40.43
2023-01-21T07:17:23.272Z,40.11
2023-01-21T07:19:50.186Z,39.87
2023-01-21T07:22:17.168Z,39.95
2023-01-21T07:24:44.100Z,39.14
2023-01-21T07:27:11.411Z,38.85
2023-01-21T07:29:38.324Z,37.85
2023-01-21T07:32:05.865Z,37.46
2023-01-21T07:34:32.935Z,36.16
2023-01-21T07:36:59.899Z,34.81
2023-01-21T07:39:27.028Z,33.68
2023-01-21T07:41:53.936Z,32.79
2023-01-21T07:44:20.887Z,32.28
2023-01-21T07:46:47.832Z,31.73
2023-01-21T07:49:17.496Z,30.91
2023-01-21T07:51:45.937Z,29.85
2023-01-21T07:54:13.782Z,27.45
2023-01-21T07:56:41.424Z,27.62
2023-01-21T07:59:10.006Z,26.70
2023-01-21T08:01:37.236Z,25.51
2023-01-21T08:04:04.541Z,24.65
2023-01-21T08:06:31.538Z,23.20
2023-01-21T08:08:58.402Z,21.89
2023-01-21T08:11:25.291Z,21.48
2023-01-21T08:13:52.222Z,21.57
2023-01-21T08:16:19.161Z,21.22
2023-01-21T08:18:46.072Z,21.10
2023-01-21T08:21:13.097Z,20.49
2023-01-21T08:23:40.116Z,18.67
2023-01-21T08:26:07.662Z,19.64
2023-01-21T08:28:34.932Z,18.81
2023-01-21T08:31:07.372Z,17.65
2023-01-21T08:33:34.590Z,17.55
2023-01-21T08:36:02.785Z,17.26
2023-01-21T08:38:29.811Z,17.42
2023-01-21T08:40:58.377Z,17.46
2023-01-21T08:43:26.245Z,16.57
2023-01-21T08:45:56.747Z,15.73
2023-01-21T08:48:23.858Z,16.24
2023-01-21T08:50:50.997Z,15.53
2023-01-21T08:53:18.018Z,16.40
2023-01-21T08:55:45.225Z,15.11
2023-01-21T08:58:12.168Z,16.59
2023-01-21T09:00:39.663Z,15.38
2023-01-21T09:03:07.124Z,15.65
2023-01-21T09:05:33.983Z,15.18
2023-01-21T09:08:00.896Z,15.86
2023-01-21T09:10:46.469Z,14.66
2023-01-21T09:13:13.430Z,14.62
2023-01-21T09:15:42.245Z,14.90
2023-01-21T09:18:09.772Z,14.79
2023-01-21T09:20:37.500Z,14.24
2023-01-21T09:23:24.529Z,13.99
2023-01-21T09:26:18.436Z,13.54
2023-01-21T09:28:47.911Z,14.72
2023-01-21T09:31:16.928Z,13.19
2023-01-21T09:33:46.874Z,11.71
2023-01-21T09:36:16.602Z,11.48
2023-01-21T09:38:44.439Z,12.98
2023-01-21T09:41:38.335Z,12.85
2023-01-21T09:44:28.193Z,10.46
2023-01-21T09:47:23.676Z,9.98
2023-01-21T09:50:14.264Z,11.07
2023-01-21T09:52:43.839Z,11.73
2023-01-21T09:55:42.063Z,10.73
2023-01-21T09:58:22.106Z,9.37
2023-01-21T10:01:07.593Z,10.59
2023-01-21T10:03:53.572Z,10.13
2023-01-21T10:06:45.653Z,10.44
2023-01-21T10:09:38.269Z,9.12
2023-01-21T10:12:26.298Z,9.74
2023-01-21T10:15:15.194Z,9.20
2023-01-21T10:18:11.587Z,10.06
2023-01-21T10:21:26.728Z,9.91
2023-01-21T10:24:23.682Z,7.96
2023-01-21T10:26:54.129Z,8.69
2023-01-21T10:29:24.575Z,9.96
2023-01-21T10:31:59.540Z,9.35
2023-01-21T10:34:31.398Z,8.95
2023-01-21T10:37:08.808Z,10.05
2023-01-21T10:39:36.227Z,9.30
2023-01-21T10:42:12.345Z,9.01
2023-01-21T10:44:57.942Z,8.84
2023-01-21T10:47:39.119Z,8.51
